Time;durP1;ratioP1;P1;durP2;ratioP2;P2;SDS_P1;SDS_P2;PMS_P1;PMS_P2;Temp;Humidity;BMP_temperature;BMP_pressure;BME280_temperature;BME280_humidity;BME280_pressure;Samples;Min_cycle;Max_cycle;Signal;HPM_P1;HPM_P2
2022/12/18 00:02:06;;;;;;;24.35;12.00;;;;;;;;;;12839703;19;20322;-63
2022/12/18 00:06:25;;;;;;;25.35;10.80;;;;;;;;;;12840834;19;20438;-64
2022/12/18 00:10:43;;;;;;;30.42;17.42;;;;;;;;;;12842862;19;20446;-63
2022/12/18 00:15:00;;;;;;;18.05;9.20;;;;;;;;;;12840526;19;20433;-64
2022/12/18 00:19:17;;;;;;;25.40;10.70;;;;;;;;;;12838756;19;20032;-64
2022/12/18 00:23:35;;;;;;;39.63;17.92;;;;;;;;;;12839303;19;20370;-63
2022/12/18 00:27:53;;;;;;;50.70;23.65;;;;;;;;;;12847095;19;20432;-63
2022/12/18 00:32:10;;;;;;;32.22;15.38;;;;;;;;;;12851179;19;20313;-65
2022/12/18 00:36:33;;;;;;;19.67;10.93;;;;;;;;;;12851261;19;20430;-64
2022/12/18 00:40:50;;;;;;;22.67;9.77;;;;;;;;;;12853954;19;20327;-63
2022/12/18 00:45:07;;;;;;;22.42;9.80;;;;;;;;;;12850723;19;20737;-64
2022/12/18 00:49:29;;;;;;;20.80;10.52;;;;;;;;;;12851675;19;20325;-65
2022/12/18 00:53:45;;;;;;;29.55;13.55;;;;;;;;;;12850457;19;20010;-64
2022/12/18 00:58:03;;;;;;;21.88;11.35;;;;;;;;;;12345065;19;10001525;-64
2022/12/18 01:02:20;;;;;;;21.05;8.82;;;;;;;;;;12850902;19;20434;-64
2022/12/18 01:06:37;;;;;;;17.02;9.40;;;;;;;;;;12851639;19;20021;-63
2022/12/18 01:10:54;;;;;;;22.30;11.38;;;;;;;;;;12850267;19;20326;-63
2022/12/18 01:15:13;;;;;;;23.65;11.98;;;;;;;;;;12848970;19;20721;-63
2022/12/18 01:19:31;;;;;;;20.83;9.35;;;;;;;;;;12848511;19;20473;-63
2022/12/18 01:23:54;;;;;;;20.50;9.90;;;;;;;;;;12847725;19;20437;-64
2022/12/18 01:28:11;;;;;;;19.50;10.55;;;;;;;;;;12848812;19;20015;-64
2022/12/18 01:32:31;;;;;;;21.80;11.00;;;;;;;;;;12848381;19;20010;-64
2022/12/18 01:36:48;;;;;;;23.85;10.35;;;;;;;;;;12848778;19;20018;-63
2022/12/18 01:41:05;;;;;;;20.63;10.18;;;;;;;;;;12845838;19;20337;-63
2022/12/18 01:45:31;;;;;;;26.80;10.93;;;;;;;;;;12847928;19;20464;-65
2022/12/18 01:49:48;;;;;;;20.48;10.20;;;;;;;;;;12847709;19;20311;-64
2022/12/18 01:54:05;;;;;;;21.08;10.27;;;;;;;;;;12848123;19;20425;-63
2022/12/18 01:59:01;;;;;;;24.58;11.98;;;;;;;;;;12844952;19;20330;-65
2022/12/18 02:03:18;;;;;;;20.73;8.48;;;;;;;;;;12845809;19;20468;-64
2022/12/18 02:08:03;;;;;;;19.52;9.10;;;;;;;;;;12846057;19;20432;-66
2022/12/18 02:12:28;;;;;;;20.52;10.40;;;;;;;;;;12845828;19;20434;-64
2022/12/18 02:17:17;;;;;;;19.48;9.55;;;;;;;;;;12843399;19;20295;-64
2022/12/18 02:21:51;;;;;;;17.98;9.57;;;;;;;;;;12843183;19;20417;-64
2022/12/18 02:26:34;;;;;;;22.02;11.10;;;;;;;;;;12842281;19;20041;-64
2022/12/18 02:30:56;;;;;;;26.55;11.27;;;;;;;;;;12843851;19;20523;-65
2022/12/18 02:35:20;;;;;;;24.02;10.85;;;;;;;;;;12841231;19;20452;-65
2022/12/18 02:39:40;;;;;;;27.40;10.63;;;;;;;;;;12842669;19;20041;-64
2022/12/18 02:44:12;;;;;;;27.02;10.82;;;;;;;;;;12843605;19;20007;-63
2022/12/18 02:48:34;;;;;;;23.52;11.80;;;;;;;;;;12840785;19;20329;-63
2022/12/18 02:53:35;;;;;;;25.63;12.27;;;;;;;;;;12839228;19;20417;-64
2022/12/18 02:58:24;;;;;;;25.65;12.50;;;;;;;;;;12842781;19;20324;-64
2022/12/18 03:03:22;;;;;;;25.13;11.95;;;;;;;;;;12843176;19;20041;-64
2022/12/18 03:07:55;;;;;;;19.95;10.23;;;;;;;;;;12840176;19;20477;-64
2022/12/18 03:12:27;;;;;;;24.75;10.32;;;;;;;;;;12839472;19;20347;-64
2022/12/18 03:16:46;;;;;;;24.38;11.02;;;;;;;;;;12842937;19;20465;-64
2022/12/18 03:21:07;;;;;;;26.98;12.45;;;;;;;;;;12837747;19;20372;-65
2022/12/18 03:25:26;;;;;;;41.58;14.52;;;;;;;;;;12841380;19;20007;-63
2022/12/18 03:30:07;;;;;;;25.42;12.60;;;;;;;;;;12841014;19;20476;-64
2022/12/18 03:34:32;;;;;;;30.75;14.20;;;;;;;;;;12837411;19;20445;-64
2022/12/18 03:38:49;;;;;;;25.83;12.73;;;;;;;;;;12838859;19;20015;-64
2022/12/18 03:43:25;;;;;;;25.55;13.10;;;;;;;;;;12840510;19;20024;-63
2022/12/18 03:48:18;;;;;;;25.65;11.98;;;;;;;;;;12837189;19;20283;-64
2022/12/18 03:52:45;;;;;;;26.48;12.27;;;;;;;;;;12839187;19;20473;-63
2022/12/18 03:57:14;;;;;;;36.05;13.57;;;;;;;;;;12837006;19;20411;-64
2022/12/18 04:01:37;;;;;;;28.25;12.60;;;;;;;;;;12837817;19;20342;-64
2022/12/18 04:05:56;;;;;;;26.38;13.45;;;;;;;;;;12837594;19;20509;-64
2022/12/18 04:10:15;;;;;;;32.72;14.10;;;;;;;;;;12837864;19;20444;-64
2022/12/18 04:14:35;;;;;;;33.65;13.77;;;;;;;;;;12837851;19;20007;-64
2022/12/18 04:18:53;;;;;;;29.92;13.23;;;;;;;;;;12838403;19;20022;-64
2022/12/18 04:23:13;;;;;;;31.55;14.27;;;;;;;;;;12838122;19;20036;-63
2022/12/18 04:27:30;;;;;;;31.25;14.13;;;;;;;;;;12841047;19;20417;-65
2022/12/18 04:31:47;;;;;;;26.77;12.60;;;;;;;;;;12837042;19;20468;-64
2022/12/18 04:36:05;;;;;;;34.20;14.30;;;;;;;;;;12837054;19;20016;-65
2022/12/18 04:40:22;;;;;;;36.57;15.07;;;;;;;;;;12838399;19;20429;-64
2022/12/18 04:44:39;;;;;;;35.83;14.93;;;;;;;;;;12836977;19;20478;-64
2022/12/18 04:48:56;;;;;;;30.65;13.18;;;;;;;;;;12836828;19;20589;-64
2022/12/18 04:53:13;;;;;;;30.92;13.13;;;;;;;;;;12835496;19;20326;-64
2022/12/18 04:57:30;;;;;;;29.42;12.60;;;;;;;;;;12836025;19;20619;-64
2022/12/18 05:01:47;;;;;;;30.20;14.18;;;;;;;;;;12836748;19;20011;-65
2022/12/18 05:06:05;;;;;;;27.80;13.15;;;;;;;;;;12835362;19;20426;-64
2022/12/18 05:10:22;;;;;;;35.03;14.65;;;;;;;;;;12836650;19;20327;-64
2022/12/18 05:14:39;;;;;;;34.22;14.77;;;;;;;;;;12842054;19;20053;-65
2022/12/18 05:18:56;;;;;;;31.45;14.20;;;;;;;;;;12847249;19;20445;-64
2022/12/18 05:23:13;;;;;;;31.73;13.43;;;;;;;;;;12847460;19;20429;-64
2022/12/18 05:27:30;;;;;;;36.38;13.85;;;;;;;;;;12847284;19;20437;-64
2022/12/18 05:31:47;;;;;;;36.78;13.95;;;;;;;;;;12847171;19;20014;-64
2022/12/18 05:36:07;;;;;;;33.45;15.07;;;;;;;;;;12846450;19;20363;-64
2022/12/18 05:40:24;;;;;;;30.33;14.63;;;;;;;;;;12846882;19;20410;-64
2022/12/18 05:44:42;;;;;;;33.75;14.98;;;;;;;;;;12846038;19;20464;-65
2022/12/18 05:49:01;;;;;;;26.13;13.20;;;;;;;;;;12846461;19;20364;-64
2022/12/18 05:53:20;;;;;;;;;;;;;;;;;;12844452;19;20343;-64
2022/12/18 05:57:37;;;;;;;32.75;13.70;;;;;;;;;;12844435;19;20318;-66
2022/12/18 06:01:54;;;;;;;32.95;14.40;;;;;;;;;;12845713;19;20490;-64
2022/12/18 06:06:19;;;;;;;34.22;14.93;;;;;;;;;;12832743;19;130292;-67
2022/12/18 06:10:37;;;;;;;30.00;13.93;;;;;;;;;;12845233;19;20010;-65
2022/12/18 06:14:54;;;;;;;26.45;13.13;;;;;;;;;;12844429;19;20448;-65
2022/12/18 06:19:16;;;;;;;30.63;13.38;;;;;;;;;;12844707;19;20101;-65
2022/12/18 06:23:33;;;;;;;29.63;14.20;;;;;;;;;;12844348;19;20107;-65
2022/12/18 06:27:50;;;;;;;33.58;14.57;;;;;;;;;;12844398;19;20295;-64
2022/12/18 06:32:07;;;;;;;40.03;17.10;;;;;;;;;;12844071;19;20167;-65
2022/12/18 06:36:24;;;;;;;37.80;18.13;;;;;;;;;;12843087;19;20315;-64
2022/12/18 06:40:41;;;;;;;33.47;14.57;;;;;;;;;;12843118;19;20006;-66
2022/12/18 06:44:58;;;;;;;30.52;14.30;;;;;;;;;;12843976;19;20433;-64
2022/12/18 06:49:15;;;;;;;30.10;13.23;;;;;;;;;;12843162;19;20320;-64
2022/12/18 06:53:33;;;;;;;30.08;14.32;;;;;;;;;;12842971;19;20433;-64
2022/12/18 06:57:50;;;;;;;36.53;16.57;;;;;;;;;;12841971;19;20323;-64
2022/12/18 07:02:12;;;;;;;44.33;20.88;;;;;;;;;;12843234;19;20493;-65
2022/12/18 07:06:29;;;;;;;35.92;16.48;;;;;;;;;;12841779;19;20323;-64
2022/12/18 07:10:48;;;;;;;36.00;15.52;;;;;;;;;;12841975;19;20302;-64
2022/12/18 07:15:12;;;;;;;39.15;15.90;;;;;;;;;;12841412;19;20498;-64
2022/12/18 07:19:29;;;;;;;30.77;13.77;;;;;;;;;;12843389;19;20322;-64
2022/12/18 07:23:47;;;;;;;37.92;16.10;;;;;;;;;;12841229;19;20411;-64
2022/12/18 07:28:05;;;;;;;36.58;16.58;;;;;;;;;;12841268;19;20025;-64
2022/12/18 07:32:24;;;;;;;43.80;18.00;;;;;;;;;;12841363;19;20457;-64
2022/12/18 07:36:41;;;;;;;31.52;14.80;;;;;;;;;;12838850;19;20365;-64
2022/12/18 07:41:03;;;;;;;30.17;14.82;;;;;;;;;;12840659;19;20378;-64
2022/12/18 07:45:22;;;;;;;33.83;16.48;;;;;;;;;;12839843;19;20417;-65
2022/12/18 07:49:39;;;;;;;38.13;17.17;;;;;;;;;;12840626;19;20468;-65
2022/12/18 07:53:56;;;;;;;39.67;18.85;;;;;;;;;;12838841;19;20029;-65
2022/12/18 07:58:14;;;;;;;36.97;18.60;;;;;;;;;;12838743;19;20015;-65
2022/12/18 08:02:31;;;;;;;42.58;19.15;;;;;;;;;;12839403;19;20311;-64
2022/12/18 08:06:48;;;;;;;35.42;17.70;;;;;;;;;;12838097;19;20329;-64
2022/12/18 08:11:05;;;;;;;40.70;18.20;;;;;;;;;;12838084;19;20310;-65
2022/12/18 08:15:23;;;;;;;39.08;18.27;;;;;;;;;;12837833;19;20313;-65
2022/12/18 08:19:40;;;;;;;48.60;24.97;;;;;;;;;;12837479;19;20327;-65
2022/12/18 08:24:00;;;;;;;57.50;24.38;;;;;;;;;;12839949;19;20429;-64
2022/12/18 08:28:17;;;;;;;66.72;25.67;;;;;;;;;;12837385;19;20350;-64
2022/12/18 08:32:34;;;;;;;56.47;24.42;;;;;;;;;;12838631;19;20437;-64
2022/12/18 08:36:51;;;;;;;59.60;25.95;;;;;;;;;;12837192;19;20433;-65
2022/12/18 08:41:11;;;;;;;81.82;36.88;;;;;;;;;;12836244;19;20386;-68
2022/12/18 08:45:28;;;;;;;82.15;36.30;;;;;;;;;;12832770;19;20438;-65
2022/12/18 08:49:45;;;;;;;93.60;37.20;;;;;;;;;;12844765;19;20367;-64
2022/12/18 08:54:04;;;;;;;84.38;37.13;;;;;;;;;;12847717;19;20494;-65
2022/12/18 08:58:22;;;;;;;59.45;29.10;;;;;;;;;;12848011;19;20378;-64
2022/12/18 09:02:39;;;;;;;53.80;26.88;;;;;;;;;;12849099;19;20349;-64
2022/12/18 09:06:56;;;;;;;56.75;26.83;;;;;;;;;;12849723;19;20338;-64
2022/12/18 09:11:23;;;;;;;53.38;24.25;;;;;;;;;;12845685;19;20433;-66
2022/12/18 09:15:45;;;;;;;44.80;19.77;;;;;;;;;;12846756;19;20342;-66
2022/12/18 09:20:03;;;;;;;44.17;19.38;;;;;;;;;;12843678;19;20438;-65
2022/12/18 09:24:20;;;;;;;37.33;18.35;;;;;;;;;;12847607;19;20449;-65
2022/12/18 09:28:37;;;;;;;38.50;18.30;;;;;;;;;;12847284;19;20107;-64
2022/12/18 09:32:55;;;;;;;38.95;18.88;;;;;;;;;;12850490;19;20421;-64
2022/12/18 09:37:12;;;;;;;41.40;19.25;;;;;;;;;;12843193;19;20350;-65
2022/12/18 09:41:43;;;;;;;36.97;18.27;;;;;;;;;;12847350;19;20456;-66
2022/12/18 09:46:08;;;;;;;38.50;18.67;;;;;;;;;;12844457;19;20383;-64
2022/12/18 09:50:39;;;;;;;45.47;19.88;;;;;;;;;;12841825;19;20002;-66
2022/12/18 09:55:19;;;;;;;41.13;18.67;;;;;;;;;;12843454;19;20422;-64
2022/12/18 09:59:41;;;;;;;36.63;17.08;;;;;;;;;;12842878;19;20003;-65
2022/12/18 10:04:00;;;;;;;43.90;19.80;;;;;;;;;;12844575;19;20472;-66
2022/12/18 10:08:33;;;;;;;35.55;17.60;;;;;;;;;;12844717;19;20472;-66
2022/12/18 10:13:08;;;;;;;141.27;81.85;;;;;;;;;;12844578;19;20472;-65
2022/12/18 10:18:01;;;;;;;43.38;20.77;;;;;;;;;;12841540;19;20498;-66
2022/12/18 10:23:07;;;;;;;75.72;35.33;;;;;;;;;;12844552;19;20007;-65
2022/12/18 10:27:26;;;;;;;48.00;20.63;;;;;;;;;;12844208;19;20357;-65
2022/12/18 10:31:45;;;;;;;44.38;18.98;;;;;;;;;;12844052;19;20442;-66
2022/12/18 10:36:06;;;;;;;38.35;17.10;;;;;;;;;;12843410;19;20373;-66
2022/12/18 10:40:23;;;;;;;39.95;17.80;;;;;;;;;;12842687;19;20017;-65
2022/12/18 10:44:40;;;;;;;36.65;16.35;;;;;;;;;;12845060;19;20469;-65
2022/12/18 10:48:59;;;;;;;36.45;18.08;;;;;;;;;;12842497;19;20082;-64
2022/12/18 10:53:27;;;;;;;42.10;19.60;;;;;;;;;;12840732;19;20444;-66
2022/12/18 10:57:45;;;;;;;40.08;20.50;;;;;;;;;;12842923;19;20358;-66
2022/12/18 11:02:24;;;;;;;;;;;;;;;;;;12842391;19;20384;-65
2022/12/18 11:07:07;;;;;;;38.55;17.55;;;;;;;;;;12840736;19;20258;-65
2022/12/18 11:11:27;;;;;;;43.65;20.27;;;;;;;;;;12839279;19;20085;-65
2022/12/18 11:15:44;;;;;;;53.77;21.50;;;;;;;;;;12841673;19;20453;-65
2022/12/18 11:20:14;;;;;;;41.15;18.50;;;;;;;;;;12838021;19;20334;-65
2022/12/18 11:24:35;;;;;;;70.57;32.88;;;;;;;;;;12837244;19;20432;-65
2022/12/18 11:29:10;;;;;;;40.08;17.30;;;;;;;;;;12840723;19;20321;-65
2022/12/18 11:33:27;;;;;;;39.33;18.02;;;;;;;;;;12838033;19;20495;-65
2022/12/18 11:37:57;;;;;;;35.22;15.77;;;;;;;;;;12838950;19;20457;-65
2022/12/18 11:42:41;;;;;;;39.60;18.25;;;;;;;;;;12839931;19;20426;-65
2022/12/18 11:47:31;;;;;;;43.63;19.63;;;;;;;;;;12837253;19;20337;-66
2022/12/18 11:52:13;;;;;;;80.05;29.88;;;;;;;;;;12837315;19;20433;-65
2022/12/18 11:56:47;;;;;;;34.15;15.23;;;;;;;;;;12836294;19;20760;-65
2022/12/18 12:01:42;;;;;;;32.35;15.55;;;;;;;;;;12835846;19;20346;-65
2022/12/18 12:06:10;;;;;;;30.45;14.52;;;;;;;;;;12839298;19;20463;-65
2022/12/18 12:11:06;;;;;;;30.48;14.23;;;;;;;;;;12838672;19;20311;-65
2022/12/18 12:16:12;;;;;;;41.38;19.70;;;;;;;;;;12837430;19;26297;-65
2022/12/18 12:20:52;;;;;;;29.00;13.53;;;;;;;;;;12837536;19;20010;-66
2022/12/18 12:25:31;;;;;;;31.02;14.13;;;;;;;;;;12834761;19;20236;-65
2022/12/18 12:30:08;;;;;;;40.40;18.42;;;;;;;;;;12836960;19;20023;-67
2022/12/18 12:34:51;;;;;;;48.40;22.63;;;;;;;;;;12834800;19;20342;-65
2022/12/18 12:39:22;;;;;;;30.08;14.15;;;;;;;;;;12836285;19;20714;-67
2022/12/18 12:43:46;;;;;;;28.27;12.50;;;;;;;;;;12834075;19;20018;-65
2022/12/18 12:48:22;;;;;;;35.28;17.48;;;;;;;;;;12833808;19;20431;-64
2022/12/18 12:52:47;;;;;;;31.63;13.77;;;;;;;;;;12836589;19;20129;-65
2022/12/18 12:57:27;;;;;;;27.10;12.23;;;;;;;;;;12834274;19;20007;-64
2022/12/18 13:02:19;;;;;;;32.35;14.38;;;;;;;;;;12835354;19;20376;-65
2022/12/18 13:06:58;;;;;;;29.35;14.00;;;;;;;;;;12832549;19;20466;-66
2022/12/18 13:16:27;;;;;;;26.33;12.48;;;;;;;;;;12831479;19;20493;-65
2022/12/18 13:20:48;;;;;;;38.17;18.58;;;;;;;;;;12831939;19;20045;-65
2022/12/18 13:25:35;;;;;;;35.33;16.13;;;;;;;;;;12832263;19;20006;-65
2022/12/18 13:29:52;;;;;;;;;;;;;;;;;;12764104;19;20425;-64
2022/12/18 13:34:24;;;;;;;25.77;13.00;;;;;;;;;;12734701;19;20329;-65
2022/12/18 13:38:44;;;;;;;29.80;12.82;;;;;;;;;;12598329;19;137351;-65
2022/12/18 13:43:19;;;;;;;26.40;13.35;;;;;;;;;;12840784;19;20314;-68
2022/12/18 13:47:37;;;;;;;34.15;16.17;;;;;;;;;;12777339;19;20424;-66
2022/12/18 13:51:56;;;;;;;38.60;16.70;;;;;;;;;;12845334;19;20027;-65
2022/12/18 13:56:20;;;;;;;34.03;16.83;;;;;;;;;;12718142;19;20461;-64
2022/12/18 14:00:42;;;;;;;45.35;21.70;;;;;;;;;;12846251;19;20314;-64
2022/12/18 14:04:59;;;;;;;69.35;31.08;;;;;;;;;;12845906;19;20543;-66
2022/12/18 14:09:25;;;;;;;61.50;28.47;;;;;;;;;;12845337;19;20049;-64
2022/12/18 14:13:43;;;;;;;99.85;41.20;;;;;;;;;;12843719;19;20076;-64
2022/12/18 14:18:43;;;;;;;108.22;44.15;;;;;;;;;;12844901;19;20064;-66
2022/12/18 14:23:01;;;;;;;89.35;35.83;;;;;;;;;;12844533;19;20461;-65
2022/12/18 14:27:24;;;;;;;61.97;27.83;;;;;;;;;;12842486;19;20014;-66
2022/12/18 14:31:41;;;;;;;53.97;21.55;;;;;;;;;;12844131;19;20367;-65
2022/12/18 14:36:04;;;;;;;42.08;21.08;;;;;;;;;;12846910;19;20010;-64
2022/12/18 14:40:21;;;;;;;41.92;19.90;;;;;;;;;;12843939;19;20472;-64
2022/12/18 14:44:38;;;;;;;38.75;19.40;;;;;;;;;;12843451;19;20010;-65
2022/12/18 14:49:34;;;;;;;49.15;24.40;;;;;;;;;;12843031;19;20025;-65
2022/12/18 14:54:03;;;;;;;63.30;26.85;;;;;;;;;;12843034;19;20302;-66
2022/12/18 14:58:20;;;;;;;65.23;26.80;;;;;;;;;;12839676;19;20318;-66
2022/12/18 15:02:37;;;;;;;56.42;25.70;;;;;;;;;;12842689;19;20455;-66
2022/12/18 15:07:23;;;;;;;55.60;24.92;;;;;;;;;;12841180;19;20020;-64
2022/12/18 15:11:40;;;;;;;63.80;26.52;;;;;;;;;;12842123;19;20383;-65
2022/12/18 15:16:02;;;;;;;68.38;29.35;;;;;;;;;;12840922;19;20011;-64
2022/12/18 15:20:20;;;;;;;109.10;44.42;;;;;;;;;;12841161;19;20011;-65
2022/12/18 15:24:37;;;;;;;73.07;32.00;;;;;;;;;;12844240;19;20434;-65
2022/12/18 15:28:57;;;;;;;68.00;29.75;;;;;;;;;;12841812;19;20045;-65
2022/12/18 15:33:25;;;;;;;73.70;30.55;;;;;;;;;;12731865;19;20014;-64
2022/12/18 15:37:43;;;;;;;;;;;;;;;;;;12840555;19;20433;-66
2022/12/18 15:46:36;;;;;;;69.93;30.98;;;;;;;;;;12837157;19;20460;-68
2022/12/18 15:50:58;;;;;;;108.03;45.70;;;;;;;;;;12787242;19;20448;-65
2022/12/18 15:59:57;;;;;;;115.05;43.75;;;;;;;;;;12837743;19;20341;-65
2022/12/18 16:04:20;;;;;;;112.88;43.85;;;;;;;;;;12761173;19;20007;-64
2022/12/18 16:08:37;;;;;;;165.00;56.70;;;;;;;;;;12677216;19;20425;-65
2022/12/18 16:12:55;;;;;;;;;;;;;;;;;;12839331;19;20465;-64
2022/12/18 16:17:14;;;;;;;154.85;52.20;;;;;;;;;;12838816;19;20289;-65
2022/12/18 16:21:31;;;;;;;139.52;54.42;;;;;;;;;;12717384;19;20457;-65
2022/12/18 16:25:50;;;;;;;143.68;56.42;;;;;;;;;;12733356;19;20468;-64
2022/12/18 16:30:16;;;;;;;133.50;51.42;;;;;;;;;;12839370;19;20378;-65
2022/12/18 16:34:34;;;;;;;159.75;58.08;;;;;;;;;;12782500;19;20410;-65
2022/12/18 16:38:51;;;;;;;163.85;58.45;;;;;;;;;;12589442;19;20086;-65
2022/12/18 16:43:08;;;;;;;164.82;58.05;;;;;;;;;;12601159;19;20453;-65
2022/12/18 16:47:25;;;;;;;175.90;59.58;;;;;;;;;;12730732;19;20042;-64
2022/12/18 16:51:45;;;;;;;142.93;52.33;;;;;;;;;;12836786;19;20023;-66
2022/12/18 16:56:02;;;;;;;113.90;45.35;;;;;;;;;;12836205;19;20434;-65
2022/12/18 17:00:20;;;;;;;;;;;;;;;;;;12835677;19;20489;-64
2022/12/18 17:04:37;;;;;;;133.63;49.78;;;;;;;;;;12838984;19;20307;-65
2022/12/18 17:09:02;;;;;;;115.32;46.35;;;;;;;;;;12838013;19;20488;-65
2022/12/18 17:13:19;;;;;;;78.47;33.25;;;;;;;;;;12848653;19;20353;-65
2022/12/18 17:17:41;;;;;;;71.32;32.25;;;;;;;;;;12847266;19;20359;-64
2022/12/18 17:21:58;;;;;;;73.18;30.40;;;;;;;;;;12848882;19;20015;-65
2022/12/18 17:26:15;;;;;;;74.03;31.20;;;;;;;;;;12847527;19;20447;-64
2022/12/18 17:30:32;;;;;;;71.75;31.50;;;;;;;;;;12847751;19;20011;-65
2022/12/18 17:34:49;;;;;;;148.80;59.95;;;;;;;;;;12846319;19;20452;-65
2022/12/18 17:39:07;;;;;;;68.97;30.88;;;;;;;;;;12849878;19;20290;-65
2022/12/18 17:43:24;;;;;;;67.15;27.23;;;;;;;;;;12749431;19;20023;-68
2022/12/18 17:47:41;;;;;;;57.90;27.35;;;;;;;;;;12792071;19;20465;-66
2022/12/18 17:51:58;;;;;;;76.53;29.92;;;;;;;;;;12846570;19;20465;-64
2022/12/18 17:56:18;;;;;;;75.05;29.40;;;;;;;;;;12846096;19;20600;-67
2022/12/18 18:00:38;;;;;;;120.22;43.20;;;;;;;;;;12846280;19;20314;-66
2022/12/18 18:04:55;;;;;;;106.68;38.42;;;;;;;;;;12845625;19;20357;-64
2022/12/18 18:09:12;;;;;;;166.25;53.58;;;;;;;;;;12844536;19;20433;-66
2022/12/18 18:14:29;;;;;;;136.02;45.55;;;;;;;;;;12845422;19;20318;-65
2022/12/18 18:18:46;;;;;;;156.52;50.10;;;;;;;;;;12844666;19;20002;-64
2022/12/18 18:23:03;;;;;;;198.43;60.65;;;;;;;;;;12842507;19;20433;-65
2022/12/18 18:27:20;;;;;;;142.93;45.70;;;;;;;;;;12845219;19;20425;-65
2022/12/18 18:31:37;;;;;;;90.03;33.60;;;;;;;;;;12719172;19;20430;-65
2022/12/18 18:35:57;;;;;;;109.80;36.92;;;;;;;;;;12843486;19;20536;-64
2022/12/18 18:40:14;;;;;;;58.28;22.40;;;;;;;;;;12843366;19;20023;-64
2022/12/18 18:44:31;;;;;;;100.78;31.75;;;;;;;;;;12769320;19;20433;-64
2022/12/18 18:48:48;;;;;;;104.93;36.45;;;;;;;;;;12788413;19;20430;-65
2022/12/18 18:53:05;;;;;;;115.70;39.00;;;;;;;;;;12840572;19;20389;-65
2022/12/18 18:57:22;;;;;;;97.00;32.55;;;;;;;;;;12840713;19;20325;-65
2022/12/18 19:01:47;;;;;;;92.95;29.33;;;;;;;;;;12737094;19;20014;-66
2022/12/18 19:06:06;;;;;;;87.10;28.52;;;;;;;;;;12840629;19;20433;-64
2022/12/18 19:10:23;;;;;;;67.68;26.15;;;;;;;;;;12841895;19;20326;-65
2022/12/18 19:14:40;;;;;;;97.68;33.35;;;;;;;;;;12787644;19;20434;-66
2022/12/18 19:18:57;;;;;;;88.18;31.45;;;;;;;;;;12694635;19;20732;-64
2022/12/18 19:23:18;;;;;;;123.32;40.47;;;;;;;;;;12839901;19;20310;-65
2022/12/18 19:27:38;;;;;;;86.55;30.73;;;;;;;;;;12841112;19;20404;-64
2022/12/18 19:31:55;;;;;;;100.05;35.95;;;;;;;;;;12838458;19;20037;-65
2022/12/18 19:36:23;;;;;;;54.13;20.20;;;;;;;;;;12839779;19;20011;-65
2022/12/18 19:40:43;;;;;;;132.15;42.97;;;;;;;;;;12841109;19;20486;-66
2022/12/18 19:45:00;;;;;;;204.60;61.03;;;;;;;;;;12840051;19;20011;-64
2022/12/18 19:49:17;;;;;;;182.95;54.92;;;;;;;;;;12839511;19;20480;-66
2022/12/18 19:53:35;;;;;;;222.65;65.80;;;;;;;;;;12785382;19;20013;-65
2022/12/18 19:57:51;;;;;;;107.37;35.80;;;;;;;;;;12839602;19;20322;-65
2022/12/18 20:02:12;;;;;;;57.85;23.02;;;;;;;;;;12838402;19;20430;-65
2022/12/18 20:06:34;;;;;;;54.22;23.33;;;;;;;;;;12838147;19;20380;-65
2022/12/18 20:10:51;;;;;;;48.42;20.38;;;;;;;;;;12838339;19;20025;-65
2022/12/18 20:15:09;;;;;;;59.35;23.90;;;;;;;;;;12837895;19;20449;-65
2022/12/18 20:19:26;;;;;;;56.30;24.10;;;;;;;;;;12805505;19;20301;-65
2022/12/18 20:23:43;;;;;;;41.67;20.42;;;;;;;;;;12838233;19;20366;-65
2022/12/18 20:28:01;;;;;;;32.67;16.40;;;;;;;;;;12838302;19;20439;-65
2022/12/18 20:32:17;;;;;;;48.85;22.98;;;;;;;;;;12838098;19;20018;-65
2022/12/18 20:36:35;;;;;;;41.53;20.15;;;;;;;;;;12837426;19;20414;-65
2022/12/18 20:40:54;;;;;;;44.65;20.08;;;;;;;;;;12837555;19;20452;-67
2022/12/18 20:45:11;;;;;;;28.27;14.38;;;;;;;;;;12845406;19;20450;-66
2022/12/18 20:49:29;;;;;;;27.77;13.68;;;;;;;;;;12795727;19;20529;-66
2022/12/18 20:53:47;;;;;;;41.63;21.73;;;;;;;;;;12849693;19;20326;-65
2022/12/18 20:58:04;;;;;;;41.08;20.70;;;;;;;;;;12793921;19;20461;-65
2022/12/18 21:02:21;;;;;;;45.33;22.70;;;;;;;;;;12848518;19;20007;-66
2022/12/18 21:06:38;;;;;;;38.33;16.63;;;;;;;;;;12849061;19;20430;-65
2022/12/18 21:10:55;;;;;;;37.30;18.23;;;;;;;;;;12848759;19;20516;-64
2022/12/18 21:15:12;;;;;;;34.97;18.08;;;;;;;;;;12848179;19;20433;-65
2022/12/18 21:19:29;;;;;;;35.95;17.50;;;;;;;;;;12851215;19;20445;-65
2022/12/18 21:23:47;;;;;;;33.17;16.45;;;;;;;;;;12721140;19;20085;-65
2022/12/18 21:28:04;;;;;;;20.25;8.88;;;;;;;;;;12846334;19;20355;-65
2022/12/18 21:32:21;;;;;;;27.90;13.48;;;;;;;;;;12847172;19;20469;-65
2022/12/18 21:36:40;;;;;;;31.92;15.57;;;;;;;;;;12846820;19;20326;-65
2022/12/18 21:40:57;;;;;;;33.25;15.35;;;;;;;;;;12848134;19;20018;-65
2022/12/18 21:45:14;;;;;;;32.70;16.15;;;;;;;;;;12844998;19;20460;-65
2022/12/18 21:49:32;;;;;;;30.00;14.48;;;;;;;;;;12849868;19;20011;-65
2022/12/18 21:53:49;;;;;;;28.23;12.90;;;;;;;;;;12845611;19;20326;-65
2022/12/18 21:58:06;;;;;;;28.27;13.38;;;;;;;;;;12844059;19;20781;-66
2022/12/18 22:02:25;;;;;;;24.17;11.80;;;;;;;;;;12845598;19;20448;-65
2022/12/18 22:06:43;;;;;;;;;;;;;;;;;;12845515;19;20493;-65
2022/12/18 22:11:00;;;;;;;25.63;13.60;;;;;;;;;;12845007;19;20313;-64
2022/12/18 22:15:18;;;;;;;21.50;11.85;;;;;;;;;;12844081;19;20007;-65
2022/12/18 22:19:37;;;;;;;24.30;13.25;;;;;;;;;;12847609;19;20458;-65
2022/12/18 22:24:05;;;;;;;25.80;12.52;;;;;;;;;;12844409;19;20475;-65
2022/12/18 22:32:58;;;;;;;238.82;74.35;;;;;;;;;;12839463;19;20731;-65
2022/12/18 22:37:15;;;;;;;308.45;97.93;;;;;;;;;;12842572;19;20455;-65
2022/12/18 22:41:32;;;;;;;277.55;89.38;;;;;;;;;;12843861;19;20456;-65
2022/12/18 22:45:49;;;;;;;286.25;89.70;;;;;;;;;;12841193;19;20389;-64
2022/12/18 22:50:07;;;;;;;319.77;97.90;;;;;;;;;;12842379;19;20525;-65
2022/12/18 22:54:24;;;;;;;226.13;71.35;;;;;;;;;;12843363;19;20287;-65
2022/12/18 22:58:41;;;;;;;305.48;92.57;;;;;;;;;;12839076;19;20403;-65
2022/12/18 23:02:58;;;;;;;323.00;90.30;;;;;;;;;;12845576;19;20321;-64
2022/12/18 23:07:17;;;;;;;319.85;86.85;;;;;;;;;;12842266;19;20024;-65
2022/12/18 23:11:34;;;;;;;389.02;110.07;;;;;;;;;;12842754;19;20363;-65
2022/12/18 23:15:51;;;;;;;379.95;107.30;;;;;;;;;;12841424;19;20429;-65
2022/12/18 23:20:08;;;;;;;370.85;102.68;;;;;;;;;;12842003;19;20457;-65
2022/12/18 23:24:25;;;;;;;110.20;40.17;;;;;;;;;;12842560;19;20365;-66
2022/12/18 23:28:44;;;;;;;153.82;45.15;;;;;;;;;;12840912;19;20513;-65
2022/12/18 23:33:01;;;;;;;376.27;99.32;;;;;;;;;;12841028;19;20451;-67
2022/12/18 23:37:18;;;;;;;324.35;85.25;;;;;;;;;;12841372;19;20440;-65
2022/12/18 23:41:57;;;;;;;322.88;91.97;;;;;;;;;;12841535;19;20044;-65
2022/12/18 23:46:34;;;;;;;222.57;64.15;;;;;;;;;;12840767;19;20433;-65
2022/12/18 23:50:51;;;;;;;219.70;66.13;;;;;;;;;;12840763;19;20014;-66
2022/12/18 23:55:08;;;;;;;230.35;75.47;;;;;;;;;;12839681;19;20007;-65
2022/12/18 23:59:25;;;;;;;185.77;66.75;;;;;;;;;;12840285;19;20010;-66
